Time;durP1;ratioP1;P1;durP2;ratioP2;P2;SDS_P1;SDS_P2;PMS_P1;PMS_P2;Temp;Humidity;BMP_temperature;BMP_pressure;BME280_temperature;BME280_humidity;BME280_pressure;Samples;Min_cycle;Max_cycle;Signal;HPM_P1;HPM_P2
2021/01/02 00:01:43;;;;;;;103.50;43.63;;;;;;;0.90;95.49;97738.84;4978839;28;20073;-85
2021/01/02 00:04:39;;;;;;;100.35;43.42;;;;;;;0.95;95.93;97731.72;4942507;28;20115;-84
2021/01/02 00:07:23;;;;;;;106.95;47.05;;;;;;;0.95;95.58;97739.63;4947325;28;20035;-84
2021/01/02 00:09:54;;;;;;;103.80;44.95;;;;;;;0.91;95.50;97732.69;4974294;28;20084;-84
2021/01/02 00:12:41;;;;;;;121.05;48.65;;;;;;;0.81;95.28;97742.53;4972293;28;20052;-84
2021/01/02 00:15:08;;;;;;;171.32;66.35;;;;;;;0.79;95.61;97741.72;4970714;28;20037;-84
2021/01/02 00:17:42;;;;;;;180.93;72.70;;;;;;;0.82;96.08;97746.03;4983110;28;20087;-86
2021/01/02 00:20:31;;;;;;;154.57;65.05;;;;;;;0.70;96.21;97748.94;4981133;28;20057;-83
2021/01/02 00:23:26;;;;;;;149.13;65.78;;;;;;;0.66;96.76;97744.59;4937489;28;20433;-87
2021/01/02 00:25:57;;;;;;;129.52;53.33;;;;;;;0.67;96.09;97748.97;4962377;28;20047;-85
2021/01/02 00:28:23;;;;;;;97.57;45.92;;;;;;;0.66;95.98;97755.13;4933651;28;20039;-85
2021/01/02 00:31:11;;;;;;;104.22;43.75;;;;;;;0.55;95.33;97745.69;4986202;28;20441;-86
2021/01/02 00:34:01;;;;;;;78.07;36.90;;;;;;;0.55;95.53;97752.72;4932353;28;20112;-84
2021/01/02 00:36:47;;;;;;;76.53;33.53;;;;;;;0.49;95.87;97761.59;4986090;28;20028;-84
2021/01/02 00:39:18;;;;;;;66.68;30.45;;;;;;;0.40;95.89;97755.66;4996619;28;20037;-83
2021/01/02 00:41:46;;;;;;;73.15;32.70;;;;;;;0.36;96.22;97754.84;4990851;28;20030;-85
2021/01/02 00:44:14;;;;;;;70.57;32.67;;;;;;;0.39;96.73;97751.28;4959930;28;20031;-84
2021/01/02 00:46:40;;;;;;;68.18;34.25;;;;;;;0.44;97.74;97758.19;5004926;28;20029;-84
2021/01/02 00:49:07;;;;;;;70.60;34.17;;;;;;;0.41;97.47;97750.34;5037755;28;20062;-85
2021/01/02 00:51:33;;;;;;;78.22;34.72;;;;;;;0.43;97.97;97753.81;5004574;28;20404;-84
2021/01/02 00:54:14;;;;;;;89.90;39.63;;;;;;;0.44;98.33;97750.28;5009602;28;20175;-84
2021/01/02 00:57:02;;;;;;;98.22;42.22;;;;;;;0.51;97.65;97765.06;5008432;28;20017;-85
2021/01/02 00:59:43;;;;;;;90.68;41.30;;;;;;;0.52;97.47;97765.94;4994080;28;20084;-85
2021/01/02 01:02:41;;;;;;;120.38;50.17;;;;;;;0.46;98.01;97759.00;5007379;28;20038;-85
2021/01/02 01:05:08;;;;;;;122.05;48.80;;;;;;;0.55;97.62;97772.00;5000749;28;20533;-84
2021/01/02 01:07:35;;;;;;;85.68;38.03;;;;;;;0.33;97.54;97754.03;5003819;28;20099;-85
2021/01/02 01:10:09;;;;;;;107.30;45.65;;;;;;;0.29;98.35;97758.47;5003822;28;20036;-84
2021/01/02 01:12:40;;;;;;;119.90;48.95;;;;;;;0.36;97.39;97760.09;5003906;28;20033;-85
2021/01/02 01:15:06;;;;;;;114.70;49.75;;;;;;;0.39;97.73;97764.44;5037592;28;20036;-84
2021/01/02 01:17:57;;;;;;;120.13;48.30;;;;;;;0.41;97.83;97773.16;5003635;28;20024;-85
2021/01/02 01:20:25;;;;;;;108.53;46.65;;;;;;;0.25;98.30;97775.19;5015528;28;20054;-85
2021/01/02 01:23:26;;;;;;;98.63;41.58;;;;;;;0.13;98.42;97762.25;4990202;28;20100;-84
2021/01/02 01:26:26;;;;;;;85.80;39.20;;;;;;;0.20;97.96;97768.28;5028928;28;20029;-85
2021/01/02 01:28:55;;;;;;;90.32;38.42;;;;;;;0.05;98.47;97763.28;4977242;28;20117;-84
2021/01/02 01:31:22;;;;;;;86.50;37.70;;;;;;;-0.05;99.31;97755.56;4988800;28;20061;-84
2021/01/02 01:34:00;;;;;;;91.78;40.17;;;;;;;0.03;99.41;97758.06;4956269;28;20030;-85
2021/01/02 01:36:34;;;;;;;79.90;37.05;;;;;;;0.02;99.08;97769.47;4956641;28;20059;-84
2021/01/02 01:39:05;;;;;;;84.97;36.38;;;;;;;-0.08;98.75;97750.34;5014827;28;20113;-85
2021/01/02 01:41:36;;;;;;;88.13;38.13;;;;;;;-0.06;99.46;97766.09;5053405;28;20044;-84
2021/01/02 01:44:12;;;;;;;80.05;36.50;;;;;;;-0.11;99.71;97770.56;5053377;28;20116;-84
2021/01/02 01:46:50;;;;;;;75.50;34.08;;;;;;;-0.05;99.31;97771.34;5006253;28;20092;-84
2021/01/02 01:49:28;;;;;;;70.85;33.42;;;;;;;-0.06;99.51;97769.59;5005205;28;20030;-84
2021/01/02 01:52:00;;;;;;;78.97;35.33;;;;;;;-0.02;99.38;97773.03;4991916;28;20052;-85
2021/01/02 01:54:56;;;;;;;61.00;29.95;;;;;;;-0.02;99.24;97765.16;4997858;28;20035;-85
2021/01/02 01:57:26;;;;;;;60.95;28.38;;;;;;;-0.05;99.47;97767.84;5039368;28;20487;-83
2021/01/02 01:59:55;;;;;;;66.40;29.67;;;;;;;-0.06;98.37;97768.72;4989651;28;20027;-83
2021/01/02 02:02:47;;;;;;;65.25;30.50;;;;;;;-0.14;98.98;97746.97;4971009;28;20041;-83
2021/01/02 02:05:12;;;;;;;71.70;31.00;;;;;;;-0.07;98.72;97777.50;5036555;28;20426;-84
2021/01/02 02:07:47;;;;;;;76.45;33.60;;;;;;;-0.10;98.56;97769.69;5052971;28;20032;-84
2021/01/02 02:10:26;;;;;;;72.07;32.55;;;;;;;-0.06;98.89;97771.34;4988743;28;20408;-84
2021/01/02 02:13:20;;;;;;;70.78;31.95;;;;;;;-0.16;98.66;97775.03;4991022;28;20035;-86
2021/01/02 02:15:52;;;;;;;63.72;27.85;;;;;;;-0.15;98.81;97775.00;4955484;28;20046;-84
2021/01/02 02:18:21;;;;;;;;;;;;;;;-0.17;98.84;97770.66;4987754;28;20056;-84
2021/01/02 02:20:55;;;;;;;66.82;29.55;;;;;;;-0.22;98.90;97772.50;5020510;28;20005;-84
2021/01/02 02:23:46;;;;;;;60.20;25.70;;;;;;;-0.27;99.23;97766.44;4955453;28;20035;-84
2021/01/02 02:26:27;;;;;;;60.20;27.63;;;;;;;-0.25;98.96;97780.44;4945680;28;20027;-84
2021/01/02 02:28:52;;;;;;;61.08;28.08;;;;;;;-0.27;98.61;97777.81;5005251;28;20029;-84
2021/01/02 02:31:19;;;;;;;52.38;24.27;;;;;;;-0.26;98.97;97769.06;5052047;28;20033;-84
2021/01/02 02:33:54;;;;;;;47.33;22.52;;;;;;;-0.33;98.69;97769.16;5023008;28;20084;-84
2021/01/02 02:36:20;;;;;;;48.38;22.23;;;;;;;-0.27;99.48;97779.56;5002490;28;20024;-84
2021/01/02 02:38:46;;;;;;;44.15;21.05;;;;;;;-0.26;98.86;97778.69;5002007;28;20029;-84
2021/01/02 02:41:14;;;;;;;38.80;19.67;;;;;;;-0.31;99.29;97764.78;5017920;28;20021;-84
2021/01/02 02:43:42;;;;;;;42.58;19.15;;;;;;;-0.29;99.03;97770.88;5018137;28;20035;-83
2021/01/02 02:46:14;;;;;;;39.88;18.58;;;;;;;-0.37;99.13;97778.00;5035563;28;20029;-85
2021/01/02 02:48:42;;;;;;;36.25;17.85;;;;;;;-0.38;99.20;97771.00;5036054;28;20056;-84
2021/01/02 02:51:09;;;;;;;38.45;18.52;;;;;;;-0.29;99.33;97784.00;5003182;28;20044;-84
2021/01/02 02:53:36;;;;;;;34.65;17.65;;;;;;;-0.31;99.45;97773.53;4998016;28;20031;-85
2021/01/02 02:56:02;;;;;;;38.25;16.48;;;;;;;-0.31;99.38;97770.03;4975070;28;20089;-85
2021/01/02 02:58:30;;;;;;;33.35;16.38;;;;;;;-0.38;99.14;97782.38;5034843;28;20056;-84
2021/01/02 03:00:55;;;;;;;32.03;14.98;;;;;;;-0.42;99.74;97783.31;5035685;28;20037;-85
2021/01/02 03:03:21;;;;;;;29.00;14.82;;;;;;;-0.39;99.98;97780.66;5021984;28;20034;-85
2021/01/02 03:05:48;;;;;;;27.50;13.82;;;;;;;-0.52;100.00;97776.47;4954838;28;20033;-85
2021/01/02 03:08:14;;;;;;;22.30;12.45;;;;;;;-0.47;100.00;97784.28;4979563;28;20116;-85
2021/01/02 03:10:42;;;;;;;22.25;10.90;;;;;;;-0.49;99.63;97781.66;5001469;28;20037;-85
2021/01/02 03:13:08;;;;;;;28.70;12.68;;;;;;;-0.45;99.68;97778.09;5013909;28;20018;-85
2021/01/02 03:15:41;;;;;;;28.55;13.80;;;;;;;-0.40;99.86;97783.31;4957258;28;20038;-85
2021/01/02 03:18:07;;;;;;;31.58;12.95;;;;;;;-0.46;99.33;97770.28;5031447;28;20027;-85
2021/01/02 03:20:33;;;;;;;26.63;12.30;;;;;;;-0.51;99.83;97772.06;4954013;28;20027;-84
2021/01/02 03:22:59;;;;;;;25.67;12.85;;;;;;;-0.38;100.00;97776.25;5003485;28;20036;-85
2021/01/02 03:25:24;;;;;;;30.98;13.00;;;;;;;-0.43;99.61;97783.34;5001441;28;20143;-85
2021/01/02 03:27:54;;;;;;;26.95;13.85;;;;;;;-0.60;100.00;97768.72;5023958;28;20036;-85
2021/01/02 03:30:20;;;;;;;30.10;15.25;;;;;;;-0.46;100.00;97776.38;4954157;28;20505;-85
2021/01/02 03:32:47;;;;;;;36.75;14.32;;;;;;;-0.52;99.61;97771.19;4953475;28;20027;-85
2021/01/02 03:35:14;;;;;;;28.73;13.13;;;;;;;-0.54;99.90;97767.75;5010794;28;20051;-85
2021/01/02 03:37:41;;;;;;;30.10;14.85;;;;;;;-0.46;100.00;97780.78;5002274;28;20088;-85
2021/01/02 03:40:08;;;;;;;32.00;14.88;;;;;;;-0.44;100.00;97786.88;5016439;28;20023;-84
2021/01/02 03:42:38;;;;;;;32.35;16.35;;;;;;;-0.42;100.00;97792.94;5004146;28;20502;-83
2021/01/02 03:45:06;;;;;;;50.22;25.58;;;;;;;-0.49;100.00;97786.91;5035236;28;20092;-84
2021/01/02 03:47:31;;;;;;;44.72;20.73;;;;;;;-0.44;100.00;97793.00;4987513;28;20031;-84
2021/01/02 03:49:57;;;;;;;32.97;17.33;;;;;;;-0.47;100.00;97798.28;4986707;28;20069;-84
2021/01/02 03:52:23;;;;;;;46.10;21.85;;;;;;;-0.46;100.00;97801.78;5016227;28;20031;-84
2021/01/02 03:54:48;;;;;;;45.05;20.67;;;;;;;-0.44;100.00;97790.38;5031003;28;20036;-84
2021/01/02 03:57:14;;;;;;;42.03;19.92;;;;;;;-0.47;99.99;97805.31;4991026;28;20037;-84
2021/01/02 03:59:42;;;;;;;49.22;22.70;;;;;;;-0.48;99.85;97800.94;4993113;28;20509;-84
2021/01/02 04:02:08;;;;;;;48.95;23.02;;;;;;;-0.43;99.71;97801.75;5021635;28;20028;-84
2021/01/02 04:04:33;;;;;;;50.55;24.45;;;;;;;-0.40;99.54;97812.22;5006492;28;20550;-84
2021/01/02 04:07:03;;;;;;;57.97;25.83;;;;;;;-0.51;100.00;97803.59;5003661;28;20024;-84
2021/01/02 04:09:29;;;;;;;56.78;23.45;;;;;;;-0.48;99.90;97809.69;4975928;28;20038;-84
2021/01/02 04:11:55;;;;;;;52.60;22.48;;;;;;;-0.48;100.00;97806.19;4957188;28;20342;-85
2021/01/02 04:14:20;;;;;;;62.78;25.45;;;;;;;-0.55;99.78;97808.03;5014171;28;20025;-84
2021/01/02 04:16:46;;;;;;;65.43;29.27;;;;;;;-0.57;99.80;97810.69;5004018;28;20030;-84
2021/01/02 04:19:12;;;;;;;56.65;26.10;;;;;;;-0.60;99.79;97821.22;5004571;28;20076;-84
2021/01/02 04:21:38;;;;;;;76.22;31.08;;;;;;;-0.64;99.71;97814.28;5038476;28;20032;-84
2021/01/02 04:24:05;;;;;;;75.80;32.28;;;;;;;-0.70;100.00;97808.22;4986707;28;20033;-84
2021/01/02 04:26:31;;;;;;;79.07;31.67;;;;;;;-0.72;100.00;97821.41;5038475;28;20033;-85
2021/01/02 04:28:57;;;;;;;69.57;31.77;;;;;;;-0.81;100.00;97818.91;5038331;28;20499;-83
2021/01/02 04:31:32;;;;;;;63.92;27.55;;;;;;;-0.79;100.00;97829.38;5021854;28;20052;-83
2021/01/02 04:33:58;;;;;;;52.15;23.83;;;;;;;-0.87;100.00;97834.72;5012951;28;20496;-83
2021/01/02 04:36:23;;;;;;;51.10;23.80;;;;;;;-0.89;100.00;97827.78;4991247;28;20035;-84
2021/01/02 04:38:49;;;;;;;50.63;24.98;;;;;;;-0.88;100.00;97829.47;5024274;28;20380;-83
2021/01/02 04:41:14;;;;;;;47.00;20.17;;;;;;;-0.97;100.00;97835.72;4991486;28;20021;-84
2021/01/02 04:43:45;;;;;;;47.00;20.30;;;;;;;-0.88;100.00;97834.72;4971936;28;20058;-84
2021/01/02 04:46:13;;;;;;;38.83;18.48;;;;;;;-0.87;99.89;97841.72;4974356;28;20110;-83
2021/01/02 04:48:40;;;;;;;49.88;23.27;;;;;;;-0.93;100.00;97826.94;4956866;28;20035;-83
2021/01/02 04:51:09;;;;;;;37.65;18.45;;;;;;;-1.10;99.92;97839.38;5040860;28;20130;-83
2021/01/02 04:53:35;;;;;;;47.17;20.50;;;;;;;-1.12;100.00;97838.53;4985566;28;20110;-83
2021/01/02 04:56:03;;;;;;;46.05;21.10;;;;;;;-1.05;100.00;97845.47;4994723;28;20089;-84
2021/01/02 04:58:29;;;;;;;55.00;23.08;;;;;;;-1.08;100.00;97842.88;5006446;28;20030;-84
2021/01/02 05:00:56;;;;;;;46.47;19.45;;;;;;;-1.22;100.00;97842.13;5028812;28;20047;-84
2021/01/02 05:03:22;;;;;;;43.25;19.30;;;;;;;-1.20;100.00;97849.09;5004333;28;20043;-84
2021/01/02 05:05:51;;;;;;;37.83;18.77;;;;;;;-1.17;100.00;97854.31;5003660;28;20038;-84
2021/01/02 05:08:17;;;;;;;38.22;18.27;;;;;;;-1.16;100.00;97860.44;4986853;28;20065;-85
2021/01/02 05:11:15;;;;;;;43.03;18.80;;;;;;;-1.19;100.00;97865.72;4990177;28;20058;-84
2021/01/02 05:13:41;;;;;;;45.38;19.35;;;;;;;-1.16;100.00;97860.44;4935213;28;20041;-84
2021/01/02 05:16:18;;;;;;;48.28;21.45;;;;;;;-1.18;100.00;97859.59;4993127;28;20038;-84
2021/01/02 05:18:58;;;;;;;52.03;23.30;;;;;;;-1.14;100.00;97864.78;5003712;28;20025;-85
2021/01/02 05:21:24;;;;;;;52.20;23.42;;;;;;;-1.16;100.00;97879.69;5003921;28;20027;-85
2021/01/02 05:24:20;;;;;;;55.67;23.90;;;;;;;-1.14;100.00;97867.41;4986397;28;20038;-84
2021/01/02 05:26:55;;;;;;;58.53;25.50;;;;;;;-1.14;100.00;97866.56;4941228;28;20043;-84
2021/01/02 05:29:25;;;;;;;57.05;25.60;;;;;;;-1.08;100.00;97874.34;5007544;28;20048;-85
2021/01/02 05:31:56;;;;;;;63.92;27.25;;;;;;;-1.15;100.00;97876.19;5002886;28;20042;-84
2021/01/02 05:34:24;;;;;;;60.97;25.35;;;;;;;-1.12;100.00;97883.13;4971991;28;20543;-84
2021/01/02 05:37:03;;;;;;;53.00;23.50;;;;;;;-1.23;100.00;97898.13;4956184;28;20043;-85
2021/01/02 05:39:43;;;;;;;49.38;22.52;;;;;;;-1.26;100.00;97885.06;4980890;28;20021;-84
2021/01/02 05:42:09;;;;;;;47.50;23.25;;;;;;;-1.24;100.00;97894.63;4994990;28;20036;-83
2021/01/02 05:44:39;;;;;;;54.58;22.13;;;;;;;-1.23;100.00;97904.22;5014530;28;20024;-85
2021/01/02 05:47:06;;;;;;;50.28;22.33;;;;;;;-1.26;100.00;97895.53;4969985;28;20042;-85
2021/01/02 05:49:41;;;;;;;55.58;22.58;;;;;;;-1.19;100.00;97902.44;5015444;28;20037;-85
2021/01/02 05:52:11;;;;;;;60.85;27.60;;;;;;;-1.20;100.00;97885.81;4990724;28;20065;-84
2021/01/02 05:54:50;;;;;;;64.75;28.80;;;;;;;-1.15;100.00;97906.78;4980501;28;20449;-85
2021/01/02 05:57:28;;;;;;;64.50;27.30;;;;;;;-1.17;100.00;97901.53;4957977;28;20030;-85
2021/01/02 05:59:56;;;;;;;69.20;29.70;;;;;;;-1.00;100.00;97904.00;5022380;28;20033;-84
2021/01/02 06:02:26;;;;;;;66.40;30.40;;;;;;;-1.02;100.00;97903.16;5022396;28;20054;-84
2021/01/02 06:05:01;;;;;;;71.07;31.63;;;;;;;-1.03;100.00;97913.66;4988600;28;20060;-84
2021/01/02 06:07:28;;;;;;;89.68;36.85;;;;;;;-0.99;100.00;97910.13;4943606;28;20494;-84
2021/01/02 06:09:54;;;;;;;99.93;43.13;;;;;;;-1.08;100.00;97896.19;4954778;28;20379;-84
2021/01/02 06:12:28;;;;;;;73.88;36.20;;;;;;;-0.96;100.00;97892.59;5002191;28;20048;-85
2021/01/02 06:14:55;;;;;;;101.30;44.15;;;;;;;-0.96;100.00;97902.22;5054352;28;20127;-84
2021/01/02 06:17:50;;;;;;;93.72;44.35;;;;;;;-0.90;100.00;97905.66;4985748;28;20025;-84
2021/01/02 06:20:17;;;;;;;133.82;59.47;;;;;;;-0.84;100.00;97908.19;4976005;28;20063;-84
2021/01/02 06:22:43;;;;;;;124.05;50.85;;;;;;;-0.91;100.00;97918.78;4949375;28;20410;-85
2021/01/02 06:25:11;;;;;;;150.32;59.13;;;;;;;-0.83;99.50;97912.53;4961376;28;20105;-84
2021/01/02 06:27:45;;;;;;;185.98;70.18;;;;;;;-0.84;99.89;97907.31;4986503;28;20410;-85
2021/01/02 06:30:20;;;;;;;181.77;72.57;;;;;;;-0.82;100.00;97914.28;4995356;28;20053;-85
2021/01/02 06:32:46;;;;;;;159.23;61.10;;;;;;;-0.79;100.00;97911.63;5012113;28;20034;-85
2021/01/02 06:35:12;;;;;;;162.20;66.93;;;;;;;-0.70;99.23;97927.28;4980939;28;20032;-84
2021/01/02 06:37:50;;;;;;;165.68;67.72;;;;;;;-0.66;99.99;97920.25;5004828;28;20078;-86
2021/01/02 06:40:39;;;;;;;127.93;51.75;;;;;;;-0.61;98.72;97927.16;5002428;28;20049;-85
2021/01/02 06:43:16;;;;;;;142.55;59.25;;;;;;;-0.62;98.88;97929.84;4965625;28;20042;-83
2021/01/02 06:45:43;;;;;;;186.30;79.43;;;;;;;-0.70;98.80;97927.28;5020801;28;20389;-84
2021/01/02 06:48:24;;;;;;;141.80;58.47;;;;;;;-0.68;98.42;97932.53;4992015;28;20098;-85
2021/01/02 06:50:53;;;;;;;119.97;51.88;;;;;;;-0.30;98.70;97926.78;5040676;28;20033;-85
2021/01/02 06:53:19;;;;;;;121.18;50.40;;;;;;;0.73;95.67;97931.34;5050027;28;20040;-84
2021/01/02 06:55:47;;;;;;;92.50;42.08;;;;;;;2.19;85.21;97942.47;5000302;28;20032;-84
2021/01/02 06:58:17;;;;;;;98.70;43.83;;;;;;;3.38;76.65;97928.03;5022024;28;20459;-84
2021/01/02 07:00:46;;;;;;;88.90;41.45;;;;;;;4.56;69.29;97923.56;4993267;28;20031;-84
2021/01/02 07:03:40;;;;;;;97.70;44.00;;;;;;;5.53;64.75;97931.75;5025298;28;20056;-84
2021/01/02 07:06:26;;;;;;;92.43;40.30;;;;;;;6.36;59.80;97949.00;4992690;28;20028;-84
2021/01/02 07:09:09;;;;;;;92.78;41.10;;;;;;;7.21;56.51;97956.16;4960836;28;20039;-83
2021/01/02 07:11:46;;;;;;;104.43;47.72;;;;;;;7.57;55.06;97950.13;4960558;28;20023;-84
2021/01/02 07:14:12;;;;;;;95.95;47.90;;;;;;;8.08;53.32;97946.94;4985145;28;20042;-81
2021/01/02 07:16:43;;;;;;;106.43;52.47;;;;;;;8.69;51.25;97957.44;5018491;28;20039;-85
2021/01/02 07:19:27;;;;;;;92.37;45.93;;;;;;;8.92;49.96;97961.66;5019488;28;20029;-84
2021/01/02 07:22:03;;;;;;;110.28;51.47;;;;;;;9.12;49.74;97957.06;4970666;28;20282;-86
2021/01/02 07:24:30;;;;;;;114.72;57.08;;;;;;;8.90;50.18;97956.41;5030193;28;20553;-83
2021/01/02 07:27:09;;;;;;;131.80;65.75;;;;;;;8.98;50.07;97961.38;5001204;28;20026;-82
2021/01/02 07:29:37;;;;;;;117.05;61.45;;;;;;;8.84;50.56;97955.81;5017447;28;20047;-82
2021/01/02 07:32:10;;;;;;;135.40;69.32;;;;;;;8.95;50.50;97953.53;4985197;28;20036;-83
2021/01/02 07:34:40;;;;;;;147.35;79.85;;;;;;;9.46;49.72;97952.72;5004905;28;20027;-82
2021/01/02 07:37:07;;;;;;;145.43;81.13;;;;;;;9.64;49.21;97949.97;5022226;28;20034;-83
2021/01/02 07:39:34;;;;;;;134.50;75.93;;;;;;;9.71;48.32;97959.38;5018007;28;20029;-82
2021/01/02 07:42:05;;;;;;;112.10;59.97;;;;;;;10.02;48.66;97952.44;5002659;28;20026;-83
2021/01/02 07:44:33;;;;;;;119.97;61.92;;;;;;;10.29;47.41;97953.66;4978312;28;20034;-83
2021/01/02 07:47:30;;;;;;;119.53;61.22;;;;;;;10.78;45.93;97941.97;4988568;28;20046;-84
2021/01/02 07:50:08;;;;;;;91.55;49.90;;;;;;;11.90;43.36;97953.25;5026896;28;20489;-83
2021/01/02 07:52:34;;;;;;;100.15;52.22;;;;;;;12.25;42.77;97954.59;4952546;28;20035;-83
2021/01/02 07:55:10;;;;;;;103.28;57.05;;;;;;;11.16;45.13;97973.72;5025653;28;20025;-82
2021/01/02 07:57:36;;;;;;;121.60;60.08;;;;;;;10.59;46.09;97951.97;4978436;28;20084;-82
2021/01/02 08:00:06;;;;;;;114.43;63.33;;;;;;;11.03;45.88;97952.13;5006902;28;20485;-82
2021/01/02 08:02:32;;;;;;;138.68;75.63;;;;;;;11.32;45.61;97948.63;5028946;28;20099;-83
2021/01/02 08:04:58;;;;;;;127.55;69.97;;;;;;;11.00;45.41;97960.34;5031092;28;20030;-83
2021/01/02 08:07:24;;;;;;;162.00;89.82;;;;;;;10.97;45.22;97947.13;5040853;28;20044;-84
2021/01/02 08:09:52;;;;;;;208.50;111.05;;;;;;;10.91;46.35;97938.59;4959394;28;20030;-83
2021/01/02 08:12:19;;;;;;;185.18;104.88;;;;;;;10.33;46.96;97940.03;4987943;28;20546;-83
2021/01/02 08:14:47;;;;;;;215.45;119.63;;;;;;;11.32;45.43;97942.44;5001059;28;20027;-84
2021/01/02 08:17:38;;;;;;;210.55;117.57;;;;;;;11.38;44.89;97940.22;4957965;28;20089;-83
2021/01/02 08:20:04;;;;;;;243.52;132.07;;;;;;;11.11;46.14;97957.91;4990222;28;20116;-83
2021/01/02 08:22:36;;;;;;;218.68;125.80;;;;;;;11.55;44.78;97941.06;5005023;28;20029;-84
2021/01/02 08:25:18;;;;;;;241.10;142.93;;;;;;;12.38;42.77;97947.53;4997580;28;20479;-83
2021/01/02 08:27:44;;;;;;;273.73;157.00;;;;;;;12.83;41.81;97929.44;5027043;28;20094;-83
2021/01/02 08:30:13;;;;;;;278.17;163.55;;;;;;;12.57;42.24;97963.34;4982206;28;20046;-83
2021/01/02 08:32:41;;;;;;;272.55;159.23;;;;;;;12.81;42.05;97940.28;5018777;28;20030;-84
2021/01/02 08:35:19;;;;;;;229.82;133.88;;;;;;;13.82;40.45;97948.75;4978227;28;20421;-83
2021/01/02 08:37:46;;;;;;;183.65;110.55;;;;;;;14.41;38.39;97960.75;5015272;28;20033;-83
2021/01/02 08:40:13;;;;;;;182.00;106.95;;;;;;;14.48;38.98;97948.59;4994728;28;20061;-83
2021/01/02 08:42:44;;;;;;;161.13;95.47;;;;;;;14.35;39.45;97945.03;4988858;28;20413;-85
2021/01/02 08:45:12;;;;;;;162.63;98.30;;;;;;;14.31;39.97;97945.31;4987291;28;20116;-84
2021/01/02 08:47:41;;;;;;;166.90;99.53;;;;;;;14.74;37.96;97943.16;4991221;28;20568;-84
2021/01/02 08:50:19;;;;;;;167.27;100.35;;;;;;;15.74;36.01;97941.94;4985953;28;20033;-84
2021/01/02 08:52:44;;;;;;;154.35;87.72;;;;;;;15.64;36.94;97936.38;5038620;28;20029;-85
2021/01/02 08:55:13;;;;;;;143.55;86.80;;;;;;;15.46;37.69;97937.72;5039567;28;20032;-83
2021/01/02 08:57:50;;;;;;;133.32;77.10;;;;;;;14.67;39.06;97936.50;5004202;28;20032;-84
2021/01/02 09:00:28;;;;;;;118.40;67.78;;;;;;;15.56;37.16;97935.25;5012212;28;20028;-83
2021/01/02 09:02:54;;;;;;;98.85;57.63;;;;;;;15.71;36.80;97931.38;5003001;28;20096;-84
2021/01/02 09:05:31;;;;;;;92.13;52.78;;;;;;;15.67;37.29;97936.13;4983727;28;20741;-82
2021/01/02 09:08:03;;;;;;;82.88;49.17;;;;;;;15.96;36.55;97943.84;4966847;28;20029;-83
2021/01/02 09:10:37;;;;;;;89.07;49.20;;;;;;;15.74;36.74;97933.84;4927509;28;20038;-82
2021/01/02 09:13:08;;;;;;;112.93;66.35;;;;;;;16.20;36.98;97934.69;4977349;28;20279;-84
2021/01/02 09:15:50;;;;;;;150.50;87.10;;;;;;;15.98;37.25;97936.47;4951956;29;20430;-85
2021/01/02 09:18:34;;;;;;;133.15;83.43;;;;;;;15.86;37.53;97927.50;4934549;28;20043;-83
2021/01/02 09:21:05;;;;;;;157.45;97.38;;;;;;;16.00;39.49;97929.97;4992080;28;20057;-76
2021/01/02 09:23:33;;;;;;;151.32;98.47;;;;;;;16.50;37.19;97923.31;4992066;28;20036;-78
2021/01/02 09:25:58;;;;;;;163.68;103.30;;;;;;;16.22;37.76;97923.75;4995858;28;20060;-74
2021/01/02 09:28:24;;;;;;;133.05;83.03;;;;;;;16.19;38.37;97916.78;4980353;28;20027;-74
2021/01/02 09:30:51;;;;;;;155.80;93.88;;;;;;;17.12;36.22;97918.25;5007191;28;20049;-72
2021/01/02 09:33:17;;;;;;;108.45;59.78;;;;;;;16.69;37.14;97920.88;5027189;28;20127;-72
2021/01/02 09:35:43;;;;;;;55.97;33.95;;;;;;;16.33;37.98;97912.13;5003790;28;20104;-75
2021/01/02 09:38:09;;;;;;;50.65;32.58;;;;;;;17.07;37.09;97908.81;4977903;28;20544;-72
2021/01/02 09:40:43;;;;;;;60.80;34.03;;;;;;;16.70;37.78;97895.56;4995188;28;20104;-74
2021/01/02 09:43:11;;;;;;;73.88;42.90;;;;;;;17.32;36.25;97892.22;4979378;28;20040;-75
2021/01/02 09:45:37;;;;;;;40.75;26.38;;;;;;;17.38;36.32;97890.88;4942542;28;20133;-74
2021/01/02 09:48:03;;;;;;;34.38;22.55;;;;;;;16.80;36.50;97880.34;4931240;28;20565;-83
2021/01/02 09:50:28;;;;;;;32.10;22.17;;;;;;;17.80;35.07;97888.13;4984327;28;20568;-82
2021/01/02 09:52:54;;;;;;;57.55;33.15;;;;;;;18.75;32.97;97897.81;5001146;28;20037;-80
2021/01/02 09:55:20;;;;;;;36.97;21.52;;;;;;;18.34;34.28;97889.75;4972489;28;20088;-81
2021/01/02 09:57:51;;;;;;;24.77;15.82;;;;;;;18.37;33.81;97882.22;5009933;28;20066;-81
2021/01/02 10:00:18;;;;;;;38.42;21.02;;;;;;;18.93;33.45;97879.91;5028876;28;20497;-81
2021/01/02 10:02:44;;;;;;;32.45;17.38;;;;;;;18.49;34.37;97880.28;5005752;28;20091;-73
2021/01/02 10:05:12;;;;;;;33.90;19.80;;;;;;;18.46;34.83;97869.69;4967040;28;20031;-74
2021/01/02 10:07:38;;;;;;;37.53;21.55;;;;;;;18.08;35.76;97864.09;5039439;28;20029;-73
2021/01/02 10:10:04;;;;;;;33.67;20.05;;;;;;;18.00;35.86;97861.19;5047999;28;20039;-73
2021/01/02 10:12:30;;;;;;;43.03;25.58;;;;;;;17.66;36.50;97855.97;5030810;28;20037;-73
2021/01/02 10:14:55;;;;;;;45.33;23.30;;;;;;;17.76;36.20;97865.03;5048763;28;20554;-74
2021/01/02 10:17:21;;;;;;;23.98;14.40;;;;;;;18.79;34.03;97844.19;5047606;28;20036;-74
2021/01/02 10:19:47;;;;;;;55.72;26.25;;;;;;;19.91;32.95;97848.13;5031201;28;20116;-74
2021/01/02 10:22:15;;;;;;;32.40;19.88;;;;;;;21.42;29.59;97842.31;5047594;28;20470;-74
2021/01/02 10:24:40;;;;;;;29.23;17.25;;;;;;;22.51;27.96;97855.47;5047578;28;20391;-74
2021/01/02 10:27:08;;;;;;;30.98;16.23;;;;;;;23.55;27.34;97846.88;5047850;28;20039;-73
2021/01/02 10:29:39;;;;;;;12.43;7.30;;;;;;;23.14;25.07;97828.66;4968845;28;20078;-74
2021/01/02 10:32:05;;;;;;;11.32;6.07;;;;;;;21.71;26.56;97829.31;4966405;28;20038;-73
2021/01/02 10:34:31;;;;;;;19.85;9.88;;;;;;;20.89;27.75;97828.59;4966967;28;20069;-73
2021/01/02 10:36:57;;;;;;;24.63;13.57;;;;;;;20.81;28.07;97840.25;5003566;28;20052;-73
2021/01/02 10:39:23;;;;;;;12.60;8.82;;;;;;;21.57;26.92;97829.88;5032881;28;20048;-74
2021/01/02 10:41:50;;;;;;;17.30;5.80;;;;;;;21.28;27.26;97826.53;5033691;28;20037;-73
2021/01/02 10:44:17;;;;;;;10.38;5.97;;;;;;;21.34;26.68;97815.88;5033364;28;20476;-74
2021/01/02 10:46:47;;;;;;;10.45;7.65;;;;;;;21.17;26.47;97808.56;5033310;28;20033;-74
2021/01/02 10:49:13;;;;;;;14.30;8.70;;;;;;;21.19;26.66;97805.69;5033358;28;20119;-73
2021/01/02 10:51:39;;;;;;;11.88;7.60;;;;;;;21.47;26.44;97804.63;5049859;28;20532;-74
2021/01/02 10:54:06;;;;;;;15.45;10.38;;;;;;;21.71;26.30;97818.44;5050178;28;20028;-74
2021/01/02 10:56:32;;;;;;;5.88;3.58;;;;;;;20.48;26.77;97800.09;5033206;28;20029;-73
2021/01/02 10:58:57;;;;;;;8.80;6.25;;;;;;;20.32;27.29;97794.44;5049722;28;20100;-73
2021/01/02 11:01:23;;;;;;;6.63;4.00;;;;;;;20.34;26.82;97792.41;5049383;28;20464;-74
2021/01/02 11:03:48;;;;;;;5.50;3.25;;;;;;;20.46;27.13;97802.94;5033319;28;20122;-75
2021/01/02 11:06:15;;;;;;;10.93;4.55;;;;;;;21.07;26.68;97797.72;5049948;28;20453;-74
2021/01/02 11:08:41;;;;;;;6.05;3.55;;;;;;;21.57;24.88;97795.31;5049630;28;20032;-74
2021/01/02 11:11:07;;;;;;;5.63;3.25;;;;;;;21.44;24.83;97794.03;5033317;28;20017;-74
2021/01/02 11:13:33;;;;;;;4.25;2.70;;;;;;;21.13;24.88;97792.72;5009402;28;20417;-74
2021/01/02 11:15:59;;;;;;;10.43;5.22;;;;;;;21.10;25.33;97785.72;4952449;28;20037;-74
2021/01/02 11:18:26;;;;;;;8.70;4.32;;;;;;;20.71;25.85;97792.38;4969510;28;20027;-74
2021/01/02 11:20:54;;;;;;;12.80;3.55;;;;;;;20.65;25.09;97791.13;4952525;28;20041;-74
2021/01/02 11:23:20;;;;;;;6.57;3.97;;;;;;;20.44;25.43;97771.47;5034562;28;20052;-74
2021/01/02 11:25:46;;;;;;;12.25;4.43;;;;;;;20.13;25.96;97778.16;4969194;28;20022;-74
2021/01/02 11:28:13;;;;;;;4.68;3.08;;;;;;;20.49;25.09;97774.59;4968271;28;20037;-75
2021/01/02 11:30:39;;;;;;;8.43;3.10;;;;;;;20.93;24.65;97773.75;4969098;28;20046;-75
2021/01/02 11:33:06;;;;;;;7.13;4.05;;;;;;;21.73;23.54;97777.41;4969270;28;20055;-76